createdAt,value
2023-05-02T00:00:40.264Z,10.85
2023-05-02T00:03:07.618Z,11.63
2023-05-02T00:05:34.884Z,11.95
2023-05-02T00:08:01.484Z,11.02
2023-05-02T00:10:28.015Z,12.30
2023-05-02T00:12:54.450Z,11.93
2023-05-02T00:15:21.603Z,10.50
2023-05-02T00:17:48.203Z,10.85
2023-05-02T00:20:14.777Z,10.77
2023-05-02T00:22:43.563Z,9.23
2023-05-02T00:25:10.329Z,9.15
2023-05-02T00:27:36.750Z,7.40
2023-05-02T00:30:03.703Z,7.90
2023-05-02T00:32:30.280Z,6.65
2023-05-02T00:34:56.803Z,6.15
2023-05-02T00:37:26.481Z,5.43
2023-05-02T00:39:52.925Z,5.47
2023-05-02T00:42:19.358Z,5.25
2023-05-02T00:44:46.936Z,5.60
2023-05-02T00:47:15.287Z,5.30
2023-05-02T00:49:42.173Z,5.85
2023-05-02T00:52:09.615Z,5.70
2023-05-02T00:54:39.355Z,5.32
2023-05-02T00:57:06.089Z,5.43
2023-05-02T00:59:35.989Z,5.15
2023-05-02T01:02:19.678Z,5.32
2023-05-02T01:05:14.875Z,4.55
2023-05-02T01:07:47.525Z,5.07
2023-05-02T01:10:33.670Z,4.50
2023-05-02T01:13:07.884Z,3.60
2023-05-02T01:15:38.275Z,4.05
2023-05-02T01:18:09.011Z,3.03
2023-05-02T01:20:41.152Z,2.72
2023-05-02T01:23:21.785Z,2.72
2023-05-02T01:28:44.759Z,1.90
2023-05-02T01:31:12.391Z,1.60
2023-05-02T01:33:40.371Z,1.55
2023-05-02T01:36:07.784Z,1.20
2023-05-02T01:38:35.927Z,1.50
2023-05-02T01:41:05.330Z,1.48
2023-05-02T01:43:34.659Z,1.50
2023-05-02T01:46:04.206Z,1.60
2023-05-02T01:48:31.479Z,1.55
2023-05-02T01:50:58.746Z,2.08
2023-05-02T01:53:28.652Z,1.80
2023-05-02T01:55:56.670Z,2.00
2023-05-02T01:58:29.409Z,2.10
2023-05-02T02:00:59.636Z,1.80
2023-05-02T02:03:27.877Z,2.58
2023-05-02T02:05:56.269Z,1.77
2023-05-02T02:08:23.529Z,1.50
2023-05-02T02:10:57.454Z,1.60
2023-05-02T02:13:31.735Z,1.75
2023-05-02T02:16:02.765Z,2.22
2023-05-02T02:18:32.514Z,1.67
2023-05-02T02:21:00.897Z,1.30
2023-05-02T02:23:29.310Z,1.60
2023-05-02T02:25:57.311Z,2.35
2023-05-02T02:28:23.791Z,1.40
2023-05-02T02:30:50.283Z,1.60
2023-05-02T02:33:17.864Z,1.55
2023-05-02T02:35:50.479Z,1.17
2023-05-02T02:38:43.255Z,1.00
2023-05-02T02:41:19.209Z,1.50
2023-05-02T02:44:12.223Z,1.15
2023-05-02T02:46:56.697Z,1.10
2023-05-02T02:49:48.575Z,1.20
2023-05-02T02:52:29.605Z,0.90
2023-05-02T02:55:31.816Z,0.95
2023-05-02T02:58:03.932Z,1.40
2023-05-02T03:00:32.543Z,1.02
2023-05-02T03:02:59.080Z,1.00
2023-05-02T03:05:25.938Z,1.08
2023-05-02T03:07:52.565Z,0.77
2023-05-02T03:10:22.288Z,1.00
2023-05-02T03:12:49.004Z,0.90
2023-05-02T03:15:41.737Z,0.93
2023-05-02T03:18:09.705Z,1.33
2023-05-02T03:20:36.353Z,1.20
2023-05-02T03:23:03.633Z,1.20
2023-05-02T03:25:30.060Z,1.00
2023-05-02T03:27:57.933Z,0.95
2023-05-02T03:30:24.452Z,0.90
2023-05-02T03:32:51.251Z,1.23
2023-05-02T03:35:19.247Z,1.30
2023-05-02T03:37:48.419Z,1.20
2023-05-02T03:40:15.033Z,1.20
2023-05-02T03:42:42.178Z,0.95
2023-05-02T03:45:20.690Z,1.23
2023-05-02T03:47:49.629Z,1.40
2023-05-02T03:50:16.330Z,1.20
2023-05-02T03:52:45.583Z,1.60
2023-05-02T03:55:12.247Z,1.67
2023-05-02T03:57:39.294Z,1.40
2023-05-02T04:00:06.850Z,1.60
2023-05-02T04:02:39.068Z,1.33
2023-05-02T04:05:09.872Z,1.60
2023-05-02T04:07:38.281Z,1.42
2023-05-02T04:10:07.453Z,1.42
2023-05-02T04:12:39.043Z,1.15
2023-05-02T04:15:06.524Z,1.10
2023-05-02T04:17:33.675Z,1.35
2023-05-02T04:20:03.192Z,0.80
2023-05-02T04:22:33.103Z,1.20
2023-05-02T04:25:03.383Z,1.42
2023-05-02T04:27:31.543Z,1.55
2023-05-02T04:30:00.165Z,1.00
2023-05-02T04:32:27.133Z,1.35
2023-05-02T04:34:54.957Z,1.15
2023-05-02T04:37:22.838Z,1.13
2023-05-02T04:39:49.553Z,1.50
2023-05-02T04:42:23.811Z,1.55
2023-05-02T04:45:08.956Z,1.50
2023-05-02T04:47:35.582Z,1.50
2023-05-02T04:50:02.564Z,1.20
2023-05-02T04:52:30.426Z,1.20
2023-05-02T04:54:57.324Z,0.98
2023-05-02T04:57:39.906Z,1.33
2023-05-02T05:00:08.630Z,1.40
2023-05-02T05:02:35.536Z,1.25
2023-05-02T05:05:02.589Z,1.80
2023-05-02T05:07:29.127Z,1.30
2023-05-02T05:09:55.884Z,1.70
2023-05-02T05:12:25.147Z,1.67
2023-05-02T05:14:51.612Z,1.30
2023-05-02T05:17:19.978Z,1.80
2023-05-02T05:19:47.650Z,1.27
2023-05-02T05:22:14.134Z,1.40
2023-05-02T05:24:40.820Z,1.88
2023-05-02T05:27:07.454Z,1.85
2023-05-02T05:29:33.919Z,2.30
2023-05-02T05:32:00.524Z,2.17
2023-05-02T05:34:28.000Z,1.80
2023-05-02T05:36:58.031Z,1.92
2023-05-02T05:39:25.459Z,1.65
2023-05-02T05:41:54.681Z,1.73
2023-05-02T05:44:22.224Z,1.83
2023-05-02T05:46:49.200Z,2.08
2023-05-02T05:49:17.383Z,1.83
2023-05-02T05:51:44.943Z,1.88
2023-05-02T05:54:12.257Z,1.88
2023-05-02T05:56:40.162Z,1.98
2023-05-02T05:59:11.424Z,2.25
2023-05-02T06:01:38.142Z,1.73
2023-05-02T06:04:05.559Z,2.08
2023-05-02T06:06:34.565Z,2.20
2023-05-02T06:09:02.849Z,2.03
2023-05-02T06:11:29.379Z,2.15
2023-05-02T06:13:56.565Z,2.00
2023-05-02T06:16:23.431Z,2.05
2023-05-02T06:18:52.773Z,1.90
2023-05-02T06:21:19.429Z,1.50
2023-05-02T06:23:46.421Z,2.00
2023-05-02T06:26:12.904Z,1.90
2023-05-02T06:28:39.305Z,1.38
2023-05-02T06:31:06.258Z,1.45
2023-05-02T06:33:33.941Z,1.48
2023-05-02T06:36:01.931Z,1.35
2023-05-02T06:38:29.432Z,1.08
2023-05-02T06:40:56.003Z,1.55
2023-05-02T06:43:22.522Z,1.23
2023-05-02T06:45:48.986Z,1.58
2023-05-02T06:48:15.706Z,1.45
2023-05-02T06:50:42.440Z,1.80
2023-05-02T06:53:09.285Z,1.27
2023-05-02T06:55:35.837Z,1.23
2023-05-02T06:58:02.365Z,2.47
2023-05-02T07:00:28.899Z,1.65
2023-05-02T07:02:56.057Z,1.83
2023-05-02T07:05:22.717Z,1.65
2023-05-02T07:07:49.310Z,1.27
2023-05-02T07:10:15.824Z,1.95
2023-05-02T07:12:42.481Z,2.13
2023-05-02T07:15:09.292Z,1.50
2023-05-02T07:17:35.863Z,1.50
2023-05-02T07:20:02.611Z,1.60
2023-05-02T07:22:29.506Z,2.00
2023-05-02T07:25:03.465Z,1.50
2023-05-02T07:27:30.106Z,1.30
2023-05-02T07:29:59.524Z,2.13
2023-05-02T07:32:26.583Z,1.58
2023-05-02T07:34:57.004Z,1.67
2023-05-02T07:37:23.909Z,1.90
2023-05-02T07:39:50.428Z,1.80
2023-05-02T07:42:17.018Z,3.05
2023-05-02T07:44:43.518Z,1.70
2023-05-02T07:47:11.245Z,2.10
2023-05-02T07:49:37.776Z,1.63
2023-05-02T07:52:04.463Z,1.70
2023-05-02T07:54:30.988Z,1.27
2023-05-02T07:57:05.105Z,1.27
2023-05-02T07:59:31.998Z,1.40
2023-05-02T08:01:58.510Z,1.55
2023-05-02T08:04:25.910Z,1.52
2023-05-02T08:06:52.719Z,1.65
2023-05-02T08:09:19.320Z,1.13
2023-05-02T08:11:46.426Z,1.40
2023-05-02T08:14:13.163Z,1.08
2023-05-02T08:16:39.670Z,1.20
2023-05-02T08:19:06.198Z,1.10
2023-05-02T08:21:33.035Z,1.30
2023-05-02T08:23:59.710Z,1.38
2023-05-02T08:26:27.165Z,1.30
2023-05-02T08:28:54.750Z,1.25
2023-05-02T08:31:21.541Z,1.00
2023-05-02T08:33:48.020Z,1.33
2023-05-02T08:36:16.216Z,1.35
2023-05-02T08:38:43.579Z,1.30
2023-05-02T08:41:19.863Z,0.80
2023-05-02T08:43:47.317Z,0.90
2023-05-02T08:46:15.904Z,1.20
2023-05-02T08:51:12.374Z,1.25
2023-05-02T08:53:40.640Z,1.05
2023-05-02T08:56:08.273Z,1.20
2023-05-02T08:58:39.625Z,1.30
2023-05-02T09:01:15.490Z,0.88
2023-05-02T09:03:44.984Z,0.98
2023-05-02T09:06:23.080Z,1.15
2023-05-02T09:08:52.449Z,1.00
2023-05-02T09:11:19.907Z,1.10
2023-05-02T09:13:51.723Z,1.00
2023-05-02T09:16:22.822Z,1.10
2023-05-02T09:18:51.276Z,1.08
2023-05-02T09:21:21.110Z,1.00
2023-05-02T09:23:49.761Z,0.90
2023-05-02T09:26:21.866Z,1.00
2023-05-02T09:28:53.258Z,1.15
2023-05-02T09:34:08.657Z,1.10
2023-05-02T09:36:44.560Z,1.10
2023-05-02T09:39:16.706Z,1.00
2023-05-02T09:41:45.226Z,1.33
2023-05-02T09:44:13.216Z,1.38
2023-05-02T09:46:44.709Z,0.98
2023-05-02T09:49:11.347Z,1.00
2023-05-02T09:51:38.132Z,1.75
2023-05-02T09:54:04.752Z,1.20
2023-05-02T09:56:31.393Z,1.20
2023-05-02T09:59:16.816Z,1.63
2023-05-02T10:01:43.807Z,1.15
2023-05-02T10:04:16.446Z,1.20
2023-05-02T10:06:44.527Z,1.23
2023-05-02T10:09:16.048Z,1.23
2023-05-02T10:11:45.714Z,1.20
2023-05-02T10:14:12.811Z,1.30
2023-05-02T10:17:04.800Z,1.60
2023-05-02T10:19:41.685Z,1.45
2023-05-02T10:22:08.887Z,1.35
2023-05-02T10:24:36.698Z,1.45
2023-05-02T10:27:05.489Z,1.30
2023-05-02T10:29:32.346Z,1.10
2023-05-02T10:32:01.190Z,1.30
2023-05-02T10:34:27.904Z,1.52
2023-05-02T10:37:01.236Z,1.60
2023-05-02T10:39:28.841Z,2.00
2023-05-02T10:41:57.928Z,1.80
2023-05-02T10:44:41.362Z,1.25
2023-05-02T10:47:24.786Z,1.55
2023-05-02T10:49:53.220Z,1.40
2023-05-02T10:52:29.837Z,1.40
2023-05-02T10:55:19.881Z,1.40
2023-05-02T10:57:58.969Z,1.60
2023-05-02T11:00:27.437Z,1.58
2023-05-02T11:02:54.230Z,1.83
2023-05-02T11:05:23.533Z,1.98
2023-05-02T11:07:50.081Z,1.50
2023-05-02T11:10:16.552Z,1.48
2023-05-02T11:12:52.542Z,1.63
2023-05-02T11:15:27.916Z,1.70
2023-05-02T11:18:07.679Z,1.70
2023-05-02T11:20:35.650Z,1.40
2023-05-02T11:23:21.464Z,1.85
2023-05-02T11:25:49.642Z,2.10
2023-05-02T11:28:34.445Z,1.50
2023-05-02T11:31:00.996Z,1.80
2023-05-02T11:33:29.263Z,1.90
2023-05-02T11:35:59.259Z,2.10
2023-05-02T11:38:27.422Z,1.80
2023-05-02T11:40:56.994Z,1.60
2023-05-02T11:43:26.072Z,2.35
2023-05-02T11:45:54.503Z,1.85
2023-05-02T11:48:23.320Z,1.70
2023-05-02T11:50:58.474Z,1.80
2023-05-02T11:53:29.331Z,1.67
2023-05-02T11:55:58.899Z,1.80
2023-05-02T11:58:29.881Z,1.60
2023-05-02T12:00:57.286Z,2.17
2023-05-02T12:03:31.994Z,2.10
2023-05-02T12:06:11.919Z,1.67
2023-05-02T12:08:40.369Z,1.90
2023-05-02T12:11:07.327Z,1.90
2023-05-02T12:13:34.004Z,1.98
2023-05-02T12:16:01.533Z,1.80
2023-05-02T12:18:28.506Z,1.70
2023-05-02T12:20:56.457Z,2.00
2023-05-02T12:23:26.909Z,2.10
2023-05-02T12:25:53.486Z,2.40
2023-05-02T12:28:20.229Z,2.00
2023-05-02T12:30:51.226Z,1.73
2023-05-02T12:33:18.602Z,1.60
2023-05-02T12:35:47.406Z,1.95
2023-05-02T12:38:21.130Z,1.55
2023-05-02T12:40:50.535Z,1.85
2023-05-02T12:43:17.710Z,1.95
2023-05-02T12:45:44.292Z,1.90
2023-05-02T12:48:25.983Z,1.85
2023-05-02T12:50:54.443Z,1.65
2023-05-02T12:53:43.951Z,2.00
2023-05-02T12:56:11.708Z,1.75
2023-05-02T12:58:47.954Z,1.48
2023-05-02T13:01:19.803Z,1.48
2023-05-02T13:03:46.739Z,1.58
2023-05-02T13:06:13.205Z,1.73
2023-05-02T13:08:39.734Z,1.33
2023-05-02T13:11:06.154Z,1.60
2023-05-02T13:13:33.402Z,1.70
2023-05-02T13:15:59.941Z,1.52
2023-05-02T13:18:28.106Z,1.75
2023-05-02T13:20:54.965Z,1.90
2023-05-02T13:23:21.718Z,1.67
2023-05-02T13:25:48.260Z,1.48
2023-05-02T13:28:14.870Z,1.52
2023-05-02T13:30:41.442Z,1.48
2023-05-02T13:33:07.979Z,1.67
2023-05-02T13:35:35.380Z,1.52
2023-05-02T13:38:02.264Z,1.67
2023-05-02T13:40:28.785Z,1.33
2023-05-02T13:42:55.390Z,1.55
2023-05-02T13:45:21.879Z,1.25
2023-05-02T13:47:48.422Z,1.60
2023-05-02T13:50:14.983Z,1.40
2023-05-02T13:52:41.602Z,1.50
2023-05-02T13:55:08.510Z,1.20
2023-05-02T13:57:35.030Z,1.08
2023-05-02T14:00:02.124Z,1.38
2023-05-02T14:02:31.867Z,1.73
2023-05-02T14:04:58.365Z,1.13
2023-05-02T14:07:24.804Z,1.45
2023-05-02T14:09:51.226Z,1.40
2023-05-02T14:12:17.750Z,1.15
2023-05-02T14:14:44.224Z,1.20
2023-05-02T14:17:10.654Z,1.38
2023-05-02T14:19:37.055Z,1.40
2023-05-02T14:22:03.485Z,1.50
2023-05-02T14:24:29.922Z,1.52
2023-05-02T14:26:58.254Z,1.23
2023-05-02T14:29:24.716Z,1.40
2023-05-02T14:31:51.313Z,1.77
2023-05-02T14:34:17.921Z,1.27
2023-05-02T14:36:44.343Z,1.23
2023-05-02T14:39:11.177Z,1.10
2023-05-02T14:41:37.576Z,1.10
2023-05-02T14:44:04.224Z,1.02
2023-05-02T14:46:30.782Z,1.40
2023-05-02T14:48:57.353Z,1.00
2023-05-02T14:51:23.856Z,1.25
2023-05-02T14:53:50.579Z,1.10
2023-05-02T14:56:18.650Z,1.33
2023-05-02T14:58:45.206Z,1.17
2023-05-02T15:01:19.019Z,1.30
2023-05-02T15:04:04.993Z,1.38
2023-05-02T15:06:32.992Z,1.40
2023-05-02T15:08:59.878Z,1.15
2023-05-02T15:11:26.284Z,1.17
2023-05-02T15:13:52.789Z,1.63
2023-05-02T15:16:19.574Z,1.15
2023-05-02T15:18:46.095Z,1.20
2023-05-02T15:21:12.802Z,1.15
2023-05-02T15:23:39.328Z,1.00
2023-05-02T15:26:06.416Z,1.38
2023-05-02T15:28:32.911Z,1.60
2023-05-02T15:30:59.454Z,1.20
2023-05-02T15:33:25.888Z,1.17
2023-05-02T15:35:55.032Z,1.27
2023-05-02T15:38:22.125Z,1.55
2023-05-02T15:40:56.565Z,1.35
2023-05-02T15:43:23.802Z,1.35
2023-05-02T15:45:54.359Z,1.02
2023-05-02T15:48:21.712Z,1.20
2023-05-02T15:50:48.731Z,1.27
2023-05-02T15:53:16.635Z,1.33
2023-05-02T15:55:46.420Z,1.15
2023-05-02T15:58:13.783Z,1.10
2023-05-02T16:00:40.365Z,1.25
2023-05-02T16:03:06.906Z,0.98
2023-05-02T16:05:36.511Z,1.20
2023-05-02T16:08:03.067Z,1.48
2023-05-02T16:10:29.968Z,1.30
2023-05-02T16:12:56.664Z,1.38
2023-05-02T16:15:23.487Z,1.20
2023-05-02T16:17:50.590Z,1.25
2023-05-02T16:20:17.990Z,1.27
2023-05-02T16:22:48.194Z,1.10
2023-05-02T16:25:16.117Z,1.02
2023-05-02T16:27:43.050Z,1.10
2023-05-02T16:30:10.111Z,1.00
2023-05-02T16:32:39.503Z,0.90
2023-05-02T16:35:08.070Z,1.05
2023-05-02T16:37:35.032Z,0.93
2023-05-02T16:40:02.390Z,1.13
2023-05-02T16:42:29.507Z,0.93
2023-05-02T16:44:57.392Z,1.00
2023-05-02T16:47:24.165Z,1.05
2023-05-02T16:49:57.911Z,0.93
2023-05-02T16:52:25.343Z,0.90
2023-05-02T16:54:52.317Z,0.80
2023-05-02T16:57:20.840Z,1.00
2023-05-02T16:59:49.002Z,1.10
2023-05-02T17:02:20.897Z,0.80
2023-05-02T17:04:49.923Z,0.93
2023-05-02T17:07:17.092Z,0.80
2023-05-02T17:09:44.563Z,1.13
2023-05-02T17:12:11.995Z,0.90
2023-05-02T17:14:41.071Z,1.00
2023-05-02T17:17:07.904Z,1.00
2023-05-02T17:19:34.866Z,0.90
2023-05-02T17:22:02.152Z,0.90
2023-05-02T17:24:29.973Z,1.10
2023-05-02T17:26:56.950Z,0.93
2023-05-02T17:29:23.421Z,0.98
2023-05-02T17:31:49.884Z,1.92
2023-05-02T17:34:16.349Z,1.05
2023-05-02T17:36:43.595Z,0.95
2023-05-02T17:39:11.460Z,0.82
2023-05-02T17:41:38.014Z,1.00
2023-05-02T17:44:05.063Z,1.30
2023-05-02T17:46:32.508Z,1.00
2023-05-02T17:48:59.887Z,1.10
2023-05-02T17:51:27.031Z,1.00
2023-05-02T17:53:53.623Z,1.20
2023-05-02T17:56:20.074Z,0.70
2023-05-02T17:58:47.130Z,0.90
2023-05-02T18:01:13.999Z,0.80
2023-05-02T18:03:40.995Z,0.80
2023-05-02T18:06:08.834Z,0.80
2023-05-02T18:08:35.480Z,0.73
2023-05-02T18:11:03.271Z,0.90
2023-05-02T18:13:29.980Z,0.80
2023-05-02T18:16:01.421Z,1.00
2023-05-02T18:18:28.024Z,0.88
2023-05-02T18:20:55.688Z,0.77
2023-05-02T18:23:29.663Z,0.55
2023-05-02T18:25:56.246Z,0.70
2023-05-02T18:28:22.697Z,0.75
2023-05-02T18:30:49.254Z,0.63
2023-05-02T18:33:15.938Z,0.80
2023-05-02T18:35:49.045Z,0.70
2023-05-02T18:38:16.129Z,0.88
2023-05-02T18:40:43.143Z,0.80
2023-05-02T18:43:09.641Z,0.85
2023-05-02T18:45:36.507Z,0.70
2023-05-02T18:48:03.355Z,0.65
2023-05-02T18:50:29.870Z,0.85
2023-05-02T18:52:56.411Z,0.77
2023-05-02T18:55:25.175Z,1.00
2023-05-02T19:00:20.221Z,1.23
2023-05-02T19:02:47.462Z,1.30
2023-05-02T19:05:14.868Z,1.00
2023-05-02T19:07:41.253Z,1.10
2023-05-02T19:10:07.995Z,0.90
2023-05-02T19:12:34.465Z,0.70
2023-05-02T19:15:01.364Z,0.63
2023-05-02T19:17:28.464Z,0.80
2023-05-02T19:19:56.194Z,0.82
2023-05-02T19:22:23.987Z,0.73
2023-05-02T19:24:50.907Z,1.00
2023-05-02T19:27:17.458Z,1.00
2023-05-02T19:29:44.239Z,0.63
2023-05-02T19:32:10.984Z,0.70
2023-05-02T19:34:37.586Z,0.68
2023-05-02T19:37:04.158Z,0.60
2023-05-02T19:39:31.486Z,0.80
2023-05-02T19:41:57.955Z,0.60
2023-05-02T19:44:24.485Z,0.70
2023-05-02T19:46:51.129Z,0.63
2023-05-02T19:49:17.890Z,0.63
2023-05-02T19:51:44.415Z,0.60
2023-05-02T19:54:11.570Z,0.60
2023-05-02T19:56:38.080Z,0.90
2023-05-02T19:59:04.500Z,0.80
2023-05-02T20:01:31.335Z,0.82
2023-05-02T20:03:58.290Z,0.90
2023-05-02T20:06:25.574Z,1.00
2023-05-02T20:08:52.809Z,0.70
2023-05-02T20:11:19.501Z,0.93
2023-05-02T20:13:45.951Z,0.70
2023-05-02T20:16:14.875Z,0.90
2023-05-02T20:18:41.364Z,0.90
2023-05-02T20:21:07.952Z,0.80
2023-05-02T20:23:34.455Z,0.80
2023-05-02T20:26:00.926Z,0.80
2023-05-02T20:28:27.364Z,0.90
2023-05-02T20:30:53.921Z,0.82
2023-05-02T20:33:23.171Z,1.17
2023-05-02T20:35:54.951Z,1.00
2023-05-02T20:38:24.017Z,1.05
2023-05-02T20:43:19.805Z,0.82
2023-05-02T20:45:46.717Z,0.73
2023-05-02T20:48:17.044Z,0.82
2023-05-02T20:50:52.078Z,0.95
2023-05-02T20:53:19.833Z,0.98
2023-05-02T20:55:47.362Z,1.10
2023-05-02T20:58:13.958Z,0.90
2023-05-02T21:00:41.091Z,0.90
2023-05-02T21:03:07.736Z,1.15
2023-05-02T21:05:34.259Z,1.15
2023-05-02T21:08:00.753Z,1.30
2023-05-02T21:10:29.921Z,1.10
2023-05-02T21:12:56.452Z,1.13
2023-05-02T21:15:23.058Z,1.33
2023-05-02T21:17:49.934Z,1.20
2023-05-02T21:20:16.373Z,1.38
2023-05-02T21:22:42.834Z,1.20
2023-05-02T21:25:09.704Z,1.17
2023-05-02T21:27:36.260Z,1.20
2023-05-02T21:30:03.054Z,1.17
2023-05-02T21:32:29.842Z,1.15
2023-05-02T21:34:56.438Z,1.20
2023-05-02T21:37:22.922Z,1.08
2023-05-02T21:39:49.326Z,1.30
2023-05-02T21:42:15.736Z,1.13
2023-05-02T21:44:42.177Z,0.90
2023-05-02T21:47:08.964Z,0.98
2023-05-02T21:49:35.597Z,1.40
2023-05-02T21:52:02.112Z,1.20
2023-05-02T21:54:28.565Z,1.20
2023-05-02T21:56:54.974Z,1.10
2023-05-02T21:59:21.425Z,0.90
2023-05-02T22:01:47.922Z,1.00
2023-05-02T22:04:14.443Z,1.38
2023-05-02T22:06:41.382Z,1.35
2023-05-02T22:09:10.143Z,1.50
2023-05-02T22:11:36.655Z,1.33
2023-05-02T22:14:03.144Z,1.20
2023-05-02T22:16:29.632Z,1.13
2023-05-02T22:18:57.779Z,1.45
2023-05-02T22:21:24.814Z,1.40
2023-05-02T22:23:51.507Z,1.35
2023-05-02T22:26:18.049Z,1.13
2023-05-02T22:28:44.512Z,1.30
2023-05-02T22:31:11.368Z,1.00
2023-05-02T22:33:37.975Z,1.60
2023-05-02T22:36:04.428Z,1.63
2023-05-02T22:38:30.864Z,1.13
2023-05-02T22:40:57.345Z,1.45
2023-05-02T22:43:23.884Z,1.15
2023-05-02T22:45:51.144Z,1.45
2023-05-02T22:48:17.911Z,1.63
2023-05-02T22:50:48.538Z,1.33
2023-05-02T22:53:14.989Z,1.30
2023-05-02T22:55:41.627Z,1.60
2023-05-02T22:58:08.204Z,1.35
2023-05-02T23:00:34.667Z,1.35
2023-05-02T23:03:01.537Z,1.33
2023-05-02T23:05:29.268Z,1.30
2023-05-02T23:07:55.829Z,1.48
2023-05-02T23:10:22.336Z,1.42
2023-05-02T23:12:48.797Z,1.27
2023-05-02T23:15:15.282Z,1.60
2023-05-02T23:17:42.960Z,1.27
2023-05-02T23:20:10.499Z,1.25
2023-05-02T23:22:43.201Z,1.23
2023-05-02T23:25:11.138Z,1.80
2023-05-02T23:27:37.565Z,1.27
2023-05-02T23:30:04.895Z,1.67
2023-05-02T23:32:31.625Z,1.48
2023-05-02T23:34:58.070Z,1.65
2023-05-02T23:37:24.645Z,1.63
2023-05-02T23:39:51.116Z,1.40
2023-05-02T23:42:17.583Z,1.83
2023-05-02T23:44:44.048Z,1.52
2023-05-02T23:47:10.697Z,1.63
2023-05-02T23:49:37.333Z,1.42
2023-05-02T23:52:04.837Z,1.67
2023-05-02T23:54:32.033Z,1.58
2023-05-02T23:57:00.677Z,1.30
2023-05-02T23:59:27.096Z,1.67
